Time;durP1;ratioP1;P1;durP2;ratioP2;P2;SDS_P1;SDS_P2;PMS_P1;PMS_P2;Temp;Humidity;BMP_temperature;BMP_pressure;BME280_temperature;BME280_humidity;BME280_pressure;Samples;Min_cycle;Max_cycle;Signal;HPM_P1;HPM_P2
2022/10/27 00:01:35;;;;;;;4.03;3.73;;;12.30;99.90;;;;;;5085604;28;20470;-77
2022/10/27 00:04:02;;;;;;;9.63;4.40;;;12.30;99.90;;;;;;5097105;28;21031;-77
2022/10/27 00:06:29;;;;;;;5.63;5.13;;;12.30;99.90;;;;;;5090764;28;20828;-78
2022/10/27 00:08:56;;;;;;;4.10;3.80;;;12.30;99.90;;;;;;5096895;28;20511;-78
2022/10/27 00:11:22;;;;;;;6.63;4.60;;;12.30;99.90;;;;;;5090289;28;20469;-77
2022/10/27 00:13:51;;;;;;;6.47;4.40;;;12.40;99.90;;;;;;5086405;28;20493;-78
2022/10/27 00:16:18;;;;;;;4.57;2.60;;;12.30;99.90;;;;;;5088034;28;20522;-78
2022/10/27 00:18:45;;;;;;;5.97;3.30;;;12.40;99.90;;;;;;5090896;28;20517;-78
2022/10/27 00:21:15;;;;;;;3.23;2.37;;;12.40;99.90;;;;;;5089712;28;20464;-77
2022/10/27 00:23:42;;;;;;;3.67;2.83;;;12.30;99.90;;;;;;5091447;28;20496;-77
2022/10/27 00:26:12;;;;;;;5.63;4.10;;;12.30;99.90;;;;;;5095510;27;20604;-77
2022/10/27 00:28:39;;;;;;;3.47;3.20;;;12.30;99.90;;;;;;5085783;28;20567;-77
2022/10/27 00:31:12;;;;;;;8.87;3.47;;;12.30;99.90;;;;;;5097186;28;20565;-77
2022/10/27 00:33:40;;;;;;;3.03;2.60;;;12.30;99.90;;;;;;5094325;28;20531;-77
2022/10/27 00:36:09;;;;;;;6.80;3.23;;;12.30;99.90;;;;;;5091133;28;20993;-77
2022/10/27 00:38:36;;;;;;;3.63;2.67;;;12.30;99.90;;;;;;5086038;28;20765;-77
2022/10/27 00:41:05;;;;;;;4.30;2.60;;;12.30;99.90;;;;;;5088610;28;20501;-77
2022/10/27 00:43:34;;;;;;;3.67;3.47;;;12.40;99.90;;;;;;5085124;28;20463;-77
2022/10/27 00:46:04;;;;;;;4.23;2.97;;;12.40;99.90;;;;;;5101556;28;20581;-77
2022/10/27 00:48:34;;;;;;;2.90;2.50;;;12.40;99.90;;;;;;5088956;28;21200;-77
2022/10/27 00:51:02;;;;;;;9.03;3.03;;;12.40;99.90;;;;;;5090863;28;20863;-77
2022/10/27 00:53:30;;;;;;;3.30;3.00;;;12.40;99.90;;;;;;5092350;28;20910;-77
2022/10/27 00:55:57;;;;;;;4.13;2.63;;;12.30;99.90;;;;;;5087057;28;20520;-77
2022/10/27 00:58:24;;;;;;;4.30;2.50;;;12.20;99.90;;;;;;5089766;28;20547;-77
2022/10/27 01:00:51;;;;;;;5.20;3.10;;;12.20;99.90;;;;;;5088093;28;20553;-77
2022/10/27 01:03:22;;;;;;;4.80;2.40;;;12.20;99.90;;;;;;5087819;28;20501;-77
2022/10/27 01:05:53;;;;;;;3.33;2.63;;;12.10;99.90;;;;;;5090347;28;20485;-77
2022/10/27 01:08:23;;;;;;;4.53;3.20;;;12.20;99.90;;;;;;5087460;28;20847;-77
2022/10/27 01:10:50;;;;;;;3.60;2.90;;;12.20;99.90;;;;;;5088733;28;20817;-77
2022/10/27 01:13:18;;;;;;;5.07;3.10;;;12.10;99.90;;;;;;5092436;28;21135;-77
2022/10/27 01:15:52;;;;;;;5.73;3.37;;;12.10;99.90;;;;;;5088692;28;21075;-77
2022/10/27 01:18:24;;;;;;;6.40;3.03;;;12.10;99.90;;;;;;5092434;28;20984;-77
2022/10/27 01:21:31;;;;;;;3.90;3.10;;;12.20;99.90;;;;;;5095597;28;20494;-77
2022/10/27 01:24:32;;;;;;;3.37;3.07;;;12.10;99.90;;;;;;5094072;28;20468;-77
2022/10/27 01:27:03;;;;;;;7.53;3.97;;;12.10;99.90;;;;;;5088167;28;20508;-77
2022/10/27 01:30:00;;;;;;;6.67;4.07;;;12.10;99.90;;;;;;5081272;28;20476;-77
2022/10/27 01:32:39;;;;;;;4.90;2.87;;;12.10;99.90;;;;;;5089058;28;20881;-77
2022/10/27 01:35:11;;;;;;;6.10;3.13;;;12.00;99.90;;;;;;5088888;28;20495;-77
2022/10/27 01:37:43;;;;;;;5.57;3.40;;;12.00;99.90;;;;;;5088478;28;20958;-77
2022/10/27 01:40:17;;;;;;;4.70;4.30;;;12.00;99.90;;;;;;5092623;28;20475;-77
2022/10/27 01:42:48;;;;;;;5.20;4.30;;;12.00;99.90;;;;;;5097711;28;20473;-77
2022/10/27 01:45:19;;;;;;;8.17;4.50;;;11.90;99.90;;;;;;5094714;28;20470;-77
2022/10/27 01:47:48;;;;;;;4.70;4.40;;;11.90;99.90;;;;;;5094141;28;20518;-77
2022/10/27 01:50:18;;;;;;;4.40;4.00;;;11.80;99.90;;;;;;5087619;28;20486;-77
2022/10/27 01:52:47;;;;;;;11.20;5.27;;;11.80;99.90;;;;;;5094904;28;20530;-77
2022/10/27 01:55:19;;;;;;;8.10;5.17;;;11.70;99.90;;;;;;5093618;27;20559;-77
2022/10/27 01:57:59;;;;;;;6.60;4.20;;;11.70;99.90;;;;;;5087519;28;20489;-77
2022/10/27 02:00:26;;;;;;;9.07;3.80;;;11.60;99.90;;;;;;5088315;28;20469;-77
2022/10/27 02:03:01;;;;;;;6.03;5.03;;;11.60;99.90;;;;;;5093739;28;20915;-77
2022/10/27 02:05:37;;;;;;;4.93;4.20;;;11.50;99.90;;;;;;5093284;28;20467;-77
2022/10/27 02:08:10;;;;;;;3.30;1.63;;;11.50;99.90;;;;;;5091270;28;21192;-77
2022/10/27 02:10:45;;;;;;;9.73;3.20;;;11.40;99.90;;;;;;5089290;28;20972;-77
2022/10/27 02:13:12;;;;;;;3.27;2.67;;;11.40;99.90;;;;;;5090340;28;20594;-77
2022/10/27 02:15:43;;;;;;;6.00;4.00;;;11.40;99.90;;;;;;5084649;28;20567;-77
2022/10/27 02:18:15;;;;;;;5.03;4.63;;;11.50;99.90;;;;;;5099099;28;20975;-77
2022/10/27 02:20:46;;;;;;;13.87;4.53;;;11.40;99.90;;;;;;5092805;28;20556;-77
2022/10/27 02:23:17;;;;;;;6.07;3.70;;;11.30;99.90;;;;;;5095571;28;20455;-77
2022/10/27 02:25:49;;;;;;;4.70;3.87;;;11.20;99.90;;;;;;5102970;27;20512;-77
2022/10/27 02:28:21;;;;;;;7.30;3.93;;;11.10;99.90;;;;;;5092668;28;20513;-77
2022/10/27 02:30:49;;;;;;;7.07;4.47;;;11.10;99.90;;;;;;5096893;28;20489;-76
2022/10/27 02:33:18;;;;;;;4.93;4.40;;;11.10;99.90;;;;;;5090347;28;20852;-77
2022/10/27 02:35:45;;;;;;;4.80;4.30;;;11.00;99.90;;;;;;5090529;28;20496;-77
2022/10/27 02:38:12;;;;;;;6.07;5.03;;;10.90;99.90;;;;;;5094924;28;20481;-77
2022/10/27 02:40:39;;;;;;;9.00;8.10;;;10.90;99.90;;;;;;5098989;28;20569;-77
2022/10/27 02:43:06;;;;;;;9.73;8.73;;;11.00;99.90;;;;;;5099310;28;20477;-77
2022/10/27 02:45:33;;;;;;;10.90;8.47;;;10.90;99.90;;;;;;5087572;28;20971;-78
2022/10/27 02:48:00;;;;;;;8.90;8.10;;;10.90;99.90;;;;;;5096570;28;20493;-77
2022/10/27 02:50:28;;;;;;;9.57;7.97;;;10.80;99.90;;;;;;5098702;28;21106;-77
2022/10/27 02:52:55;;;;;;;11.10;8.07;;;10.70;99.90;;;;;;5089096;28;20549;-77
2022/10/27 02:55:22;;;;;;;9.77;8.00;;;10.70;99.90;;;;;;5093692;27;20496;-77
2022/10/27 02:57:49;;;;;;;8.40;7.60;;;10.60;99.90;;;;;;5090354;28;20512;-77
2022/10/27 03:00:17;;;;;;;7.60;6.70;;;10.60;99.90;;;;;;5087628;28;20560;-77
2022/10/27 03:02:44;;;;;;;9.50;6.17;;;10.50;99.90;;;;;;5087398;28;21353;-77
2022/10/27 03:05:11;;;;;;;14.70;8.80;;;10.40;99.90;;;;;;5099648;28;20864;-77
2022/10/27 03:07:39;;;;;;;10.10;8.47;;;10.40;99.90;;;;;;5086285;28;20806;-77
2022/10/27 03:10:07;;;;;;;8.63;7.93;;;10.40;99.90;;;;;;5092250;28;20484;-77
2022/10/27 03:12:34;;;;;;;9.20;8.33;;;10.30;99.90;;;;;;5091414;28;20545;-77
2022/10/27 03:15:01;;;;;;;8.63;7.80;;;10.30;99.90;;;;;;5095389;28;20503;-77
2022/10/27 03:17:28;;;;;;;9.73;8.17;;;10.40;99.90;;;;;;5094416;28;20573;-77
2022/10/27 03:19:55;;;;;;;8.93;8.07;;;10.40;99.90;;;;;;5084258;28;20581;-77
2022/10/27 03:22:22;;;;;;;10.13;8.10;;;10.40;99.90;;;;;;5086993;28;20501;-77
2022/10/27 03:24:50;;;;;;;9.80;8.90;;;10.30;99.90;;;;;;5089372;27;21132;-77
2022/10/27 03:27:17;;;;;;;9.33;8.27;;;10.40;99.90;;;;;;5094602;28;21239;-77
2022/10/27 03:29:44;;;;;;;14.93;8.20;;;10.50;99.90;;;;;;5086325;28;20476;-77
2022/10/27 03:32:11;;;;;;;12.60;8.33;;;10.60;99.90;;;;;;5094916;28;20968;-76
2022/10/27 03:34:38;;;;;;;8.13;7.33;;;10.50;99.90;;;;;;5086071;28;20464;-77
2022/10/27 03:37:04;;;;;;;11.10;8.07;;;10.30;99.90;;;;;;5089374;28;20476;-77
2022/10/27 03:39:31;;;;;;;189.63;34.13;;;10.20;99.90;;;;;;5090583;28;21095;-77
2022/10/27 03:42:00;;;;;;;172.77;29.93;;;10.20;99.90;;;;;;5100075;28;20510;-76
2022/10/27 03:44:26;;;;;;;154.67;20.27;;;10.10;99.90;;;;;;5091163;28;20541;-76
2022/10/27 03:46:53;;;;;;;38.70;13.00;;;10.00;99.90;;;;;;5087472;28;20928;-76
2022/10/27 03:49:20;;;;;;;16.90;7.80;;;10.10;99.90;;;;;;5090687;28;20474;-76
2022/10/27 03:51:47;;;;;;;79.17;18.90;;;10.00;99.90;;;;;;5096908;28;20476;-77
2022/10/27 03:54:14;;;;;;;46.63;11.90;;;9.90;99.90;;;;;;5087281;28;20552;-76
2022/10/27 03:56:41;;;;;;;35.03;8.87;;;9.90;99.90;;;;;;5089809;28;20462;-76
2022/10/27 03:59:10;;;;;;;68.33;12.37;;;9.80;99.90;;;;;;5088385;28;20614;-76
2022/10/27 04:01:37;;;;;;;30.40;8.10;;;9.90;99.90;;;;;;5093359;28;20482;-76
2022/10/27 04:04:04;;;;;;;18.57;6.00;;;9.80;99.90;;;;;;5089389;28;20451;-77
2022/10/27 04:06:31;;;;;;;38.07;10.20;;;9.80;99.90;;;;;;5093105;28;20459;-76
2022/10/27 04:08:58;;;;;;;7.30;6.57;;;9.80;99.90;;;;;;5088651;28;20837;-77
2022/10/27 04:11:25;;;;;;;10.50;9.40;;;9.90;99.90;;;;;;5094760;28;20482;-76
2022/10/27 04:13:52;;;;;;;15.90;9.33;;;9.90;99.90;;;;;;5092657;28;20523;-76
2022/10/27 04:16:20;;;;;;;66.37;14.30;;;9.90;99.90;;;;;;5094407;28;21167;-77
2022/10/27 04:18:47;;;;;;;135.27;20.67;;;9.90;99.90;;;;;;5093554;28;20925;-76
2022/10/27 04:21:15;;;;;;;18.50;11.57;;;10.00;99.90;;;;;;5095282;28;20569;-76
2022/10/27 04:23:42;;;;;;;21.77;10.20;;;10.00;99.90;;;;;;5097749;28;20911;-77
2022/10/27 04:26:09;;;;;;;53.97;16.37;;;10.00;99.90;;;;;;5096217;27;20861;-77
2022/10/27 04:28:36;;;;;;;155.90;26.77;;;10.10;99.90;;;;;;5089645;28;20509;-76
2022/10/27 04:31:03;;;;;;;88.40;17.30;;;10.10;99.90;;;;;;5091181;28;20517;-77
2022/10/27 04:33:32;;;;;;;142.67;23.40;;;10.10;99.90;;;;;;5087768;28;20462;-77
2022/10/27 04:35:59;;;;;;;101.57;19.77;;;10.10;99.90;;;;;;5092074;28;20494;-77
2022/10/27 04:38:26;;;;;;;124.50;24.07;;;10.10;99.90;;;;;;5092977;28;20599;-76
2022/10/27 04:40:52;;;;;;;49.97;11.23;;;10.10;99.90;;;;;;5096207;28;20574;-77
2022/10/27 04:43:20;;;;;;;49.03;15.20;;;10.10;99.90;;;;;;5087143;28;20865;-77
2022/10/27 04:45:47;;;;;;;85.27;16.47;;;10.00;99.90;;;;;;5093266;28;20549;-76
2022/10/27 04:48:14;;;;;;;62.63;13.70;;;10.00;99.90;;;;;;5087546;28;20487;-76
2022/10/27 04:50:42;;;;;;;25.13;8.40;;;10.00;99.90;;;;;;5088069;28;20508;-77
2022/10/27 04:53:09;;;;;;;101.73;19.13;;;9.90;99.90;;;;;;5089916;28;20466;-77
2022/10/27 04:55:36;;;;;;;51.07;12.30;;;9.80;99.90;;;;;;5090940;28;20494;-77
2022/10/27 04:58:03;;;;;;;19.60;7.73;;;9.80;99.90;;;;;;5092859;28;20519;-77
2022/10/27 05:00:30;;;;;;;16.83;6.10;;;9.80;99.90;;;;;;5095957;28;20479;-76
2022/10/27 05:02:58;;;;;;;13.60;7.30;;;9.70;99.90;;;;;;5083374;28;20564;-77
2022/10/27 05:05:27;;;;;;;43.20;10.20;;;9.70;99.90;;;;;;5096390;28;20487;-76
2022/10/27 05:07:56;;;;;;;29.60;7.30;;;9.70;99.90;;;;;;5102117;28;20477;-76
2022/10/27 05:10:24;;;;;;;40.47;8.87;;;9.80;99.90;;;;;;5092100;28;20454;-77
2022/10/27 05:12:51;;;;;;;43.77;9.33;;;9.90;99.90;;;;;;5084436;28;20938;-77
2022/10/27 05:15:18;;;;;;;90.03;14.97;;;10.00;99.90;;;;;;5101809;28;21300;-77
2022/10/27 05:17:45;;;;;;;53.63;12.73;;;10.00;99.90;;;;;;5088334;28;20472;-76
2022/10/27 05:20:12;;;;;;;55.00;11.03;;;9.90;99.90;;;;;;5091028;28;20514;-76
2022/10/27 05:22:40;;;;;;;44.57;10.33;;;9.80;99.90;;;;;;5093881;28;20495;-76
2022/10/27 05:25:09;;;;;;;34.03;10.20;;;9.70;99.90;;;;;;5096275;28;20490;-76
2022/10/27 05:27:36;;;;;;;44.57;10.00;;;9.60;99.90;;;;;;5095436;27;20525;-76
2022/10/27 05:30:04;;;;;;;14.83;5.07;;;9.60;99.90;;;;;;5088119;28;20454;-76
2022/10/27 05:32:31;;;;;;;45.00;19.77;;;9.60;99.90;;;;;;5090821;28;20494;-76
2022/10/27 05:34:58;;;;;;;26.50;18.70;;;9.70;99.90;;;;;;5094859;28;20460;-82
2022/10/27 05:37:25;;;;;;;14.80;9.93;;;9.60;99.90;;;;;;5092565;28;20539;-80
2022/10/27 05:39:51;;;;;;;6.13;4.83;;;9.60;99.90;;;;;;5097853;28;20538;-80
2022/10/27 05:42:20;;;;;;;5.70;3.60;;;9.60;99.90;;;;;;5092170;28;20442;-80
2022/10/27 05:44:47;;;;;;;5.03;3.27;;;9.70;99.90;;;;;;5091583;28;21011;-80
2022/10/27 05:47:14;;;;;;;4.60;3.67;;;9.80;99.90;;;;;;5089322;28;20527;-80
2022/10/27 05:49:40;;;;;;;5.23;3.10;;;9.80;99.90;;;;;;5085192;28;20463;-82
2022/10/27 05:52:07;;;;;;;4.17;2.80;;;9.80;99.90;;;;;;5092158;28;20460;-82
2022/10/27 05:54:34;;;;;;;8.30;5.90;;;9.90;99.90;;;;;;5087909;28;20962;-82
2022/10/27 05:57:01;;;;;;;61.97;10.50;;;10.00;99.90;;;;;;5087352;28;20931;-81
2022/10/27 05:59:30;;;;;;;56.80;7.90;;;10.00;99.90;;;;;;5092039;28;20486;-81
2022/10/27 06:01:56;;;;;;;5.27;3.23;;;10.10;99.90;;;;;;5088093;28;20494;-82
2022/10/27 06:04:23;;;;;;;24.20;21.63;;;10.10;99.90;;;;;;5095479;28;20840;-81
2022/10/27 06:06:50;;;;;;;6.63;4.90;;;10.20;99.90;;;;;;5086565;28;20516;-82
2022/10/27 06:09:17;;;;;;;12.47;11.17;;;10.20;99.90;;;;;;5096203;28;20524;-81
2022/10/27 06:11:44;;;;;;;8.40;6.50;;;10.20;99.90;;;;;;5088108;28;20467;-81
2022/10/27 06:14:11;;;;;;;13.00;3.23;;;10.20;99.90;;;;;;5091106;28;20973;-82
2022/10/27 06:16:39;;;;;;;33.77;6.03;;;10.30;99.90;;;;;;5089106;28;20529;-81
2022/10/27 06:19:06;;;;;;;47.40;10.13;;;10.40;99.90;;;;;;5090042;28;20551;-82
2022/10/27 06:21:33;;;;;;;3.30;3.00;;;10.40;99.90;;;;;;5097469;28;20918;-81
2022/10/27 06:24:00;;;;;;;26.40;5.63;;;10.40;99.90;;;;;;5090071;28;20486;-82
2022/10/27 06:26:27;;;;;;;47.87;7.47;;;10.50;99.90;;;;;;5086622;28;20467;-82
2022/10/27 06:28:54;;;;;;;89.70;11.37;;;10.50;99.90;;;;;;5088419;28;20454;-82
2022/10/27 06:31:21;;;;;;;19.60;4.37;;;10.60;99.90;;;;;;5085836;28;20955;-83
2022/10/27 06:33:49;;;;;;;58.87;13.80;;;10.50;99.90;;;;;;5089567;28;20508;-82
2022/10/27 06:36:16;;;;;;;27.30;6.00;;;10.50;99.90;;;;;;5089758;28;21124;-82
2022/10/27 06:38:43;;;;;;;2.87;2.67;;;10.50;99.90;;;;;;5085932;28;20552;-82
2022/10/27 06:41:10;;;;;;;41.93;9.33;;;10.40;99.90;;;;;;5092755;27;20479;-82
2022/10/27 06:43:37;;;;;;;12.40;4.10;;;10.50;99.90;;;;;;5095930;28;20468;-82
2022/10/27 06:46:04;;;;;;;35.53;11.27;;;10.70;99.90;;;;;;5090717;28;20524;-82
2022/10/27 06:48:31;;;;;;;69.77;15.60;;;10.80;99.90;;;;;;5089643;28;20956;-82
2022/10/27 06:50:59;;;;;;;33.00;12.60;;;10.90;99.90;;;;;;5099183;28;20574;-82
2022/10/27 06:53:26;;;;;;;18.83;9.23;;;10.90;99.90;;;;;;5090219;28;20524;-82
2022/10/27 06:55:54;;;;;;;25.03;11.60;;;10.90;99.90;;;;;;5087307;28;20489;-82
2022/10/27 06:58:21;;;;;;;93.40;22.43;;;10.90;99.90;;;;;;5089587;27;20585;-82
2022/10/27 07:00:48;;;;;;;22.97;8.43;;;11.00;99.90;;;;;;5084851;28;21031;-83
2022/10/27 07:03:15;;;;;;;6.13;5.53;;;11.00;99.90;;;;;;5088581;27;20490;-83
2022/10/27 07:05:43;;;;;;;5.70;5.30;;;11.00;99.90;;;;;;5088240;28;20494;-83
2022/10/27 07:08:11;;;;;;;4.53;4.20;;;11.10;99.90;;;;;;5087769;28;20491;-83
2022/10/27 07:10:38;;;;;;;7.60;6.90;;;10.90;99.90;;;;;;5086903;28;20533;-83
2022/10/27 07:13:05;;;;;;;12.10;10.60;;;11.00;99.90;;;;;;5090361;28;20486;-84
2022/10/27 07:15:35;;;;;;;4.20;3.60;;;11.20;99.90;;;;;;5098173;28;20503;-84
2022/10/27 07:18:05;;;;;;;5.67;3.47;;;11.20;99.90;;;;;;5091177;28;20939;-84
2022/10/27 07:20:33;;;;;;;5.57;3.70;;;11.30;99.90;;;;;;5092541;28;20882;-84
2022/10/27 07:23:01;;;;;;;4.20;3.80;;;11.50;99.90;;;;;;5092517;28;20463;-84
2022/10/27 07:25:30;;;;;;;4.70;4.20;;;11.60;99.90;;;;;;5084239;28;20525;-84
2022/10/27 07:27:58;;;;;;;6.40;5.70;;;11.70;99.90;;;;;;5093802;27;21592;-84
2022/10/27 07:30:27;;;;;;;7.17;6.10;;;11.80;99.90;;;;;;5091609;28;20451;-84
2022/10/27 07:32:55;;;;;;;6.90;6.30;;;11.90;99.90;;;;;;5088730;28;20440;-84
2022/10/27 07:35:24;;;;;;;8.03;7.23;;;11.90;99.90;;;;;;5102894;28;20472;-84
2022/10/27 07:37:51;;;;;;;7.60;6.97;;;11.90;99.90;;;;;;5096141;28;20492;-84
2022/10/27 07:40:20;;;;;;;8.20;7.50;;;12.00;99.90;;;;;;5094699;27;20490;-84
2022/10/27 07:42:49;;;;;;;6.03;5.53;;;11.90;99.90;;;;;;5093624;28;20521;-84
2022/10/27 07:45:18;;;;;;;7.00;6.40;;;11.90;99.90;;;;;;5089191;28;20491;-84
2022/10/27 07:47:45;;;;;;;7.53;6.70;;;11.90;99.90;;;;;;5091384;28;20937;-84
2022/10/27 07:50:13;;;;;;;5.60;5.10;;;11.70;99.90;;;;;;5084679;28;20514;-84
2022/10/27 07:52:43;;;;;;;7.03;6.00;;;11.70;99.90;;;;;;5094521;28;20448;-84
2022/10/27 07:55:11;;;;;;;4.53;4.13;;;11.80;99.90;;;;;;5092120;28;20853;-84
2022/10/27 07:57:38;;;;;;;5.40;4.90;;;12.00;99.90;;;;;;5091788;28;20568;-84
2022/10/27 08:00:10;;;;;;;4.93;4.53;;;12.10;99.90;;;;;;5084635;28;20890;-84
2022/10/27 08:02:37;;;;;;;6.50;5.10;;;12.20;99.90;;;;;;5093116;28;20501;-83
2022/10/27 08:05:04;;;;;;;5.77;5.27;;;12.40;99.90;;;;;;5088438;28;20548;-84
2022/10/27 08:07:31;;;;;;;5.33;4.83;;;12.70;99.90;;;;;;5086228;28;20473;-84
2022/10/27 08:09:58;;;;;;;13.43;6.50;;;12.80;99.90;;;;;;5084195;28;20922;-81
2022/10/27 08:12:25;;;;;;;5.10;4.70;;;12.90;99.90;;;;;;5088031;28;20453;-81
2022/10/27 08:14:52;;;;;;;7.00;6.30;;;12.90;99.90;;;;;;5089009;28;20463;-81
2022/10/27 08:17:21;;;;;;;8.00;5.30;;;13.00;99.90;;;;;;5091135;28;20466;-81
2022/10/27 08:19:48;;;;;;;7.23;6.53;;;13.00;99.90;;;;;;5087820;28;20460;-81
2022/10/27 08:22:15;;;;;;;8.20;7.50;;;13.10;99.90;;;;;;5098842;28;20489;-81
2022/10/27 08:24:42;;;;;;;7.03;6.53;;;13.30;99.90;;;;;;5075918;28;20508;-81
2022/10/27 08:27:09;;;;;;;6.83;5.70;;;13.40;99.90;;;;;;5080776;28;20571;-81
2022/10/27 08:29:36;;;;;;;7.73;7.20;;;13.20;99.90;;;;;;5090611;28;20466;-81
2022/10/27 08:32:03;;;;;;;11.97;10.87;;;13.30;99.90;;;;;;5096240;28;20446;-82
2022/10/27 08:34:31;;;;;;;14.80;10.50;;;13.30;99.90;;;;;;5092444;28;20534;-81
2022/10/27 08:36:58;;;;;;;10.53;9.60;;;13.40;99.90;;;;;;5093381;28;20457;-81
2022/10/27 08:39:25;;;;;;;11.47;10.33;;;13.50;99.90;;;;;;5089641;28;20474;-81
2022/10/27 08:41:58;;;;;;;11.67;10.60;;;13.70;99.90;;;;;;5097132;28;20519;-81
2022/10/27 08:44:28;;;;;;;9.37;8.67;;;13.90;99.90;;;;;;5094441;28;20466;-81
2022/10/27 08:46:57;;;;;;;7.60;6.93;;;13.90;99.90;;;;;;5096062;28;20461;-82
2022/10/27 08:49:37;;;;;;;8.70;7.93;;;14.00;99.90;;;;;;5086908;28;20457;-81
2022/10/27 08:52:12;;;;;;;7.03;6.43;;;13.90;99.90;;;;;;5092575;28;20861;-84
2022/10/27 08:54:41;;;;;;;7.00;6.40;;;14.00;99.90;;;;;;5094030;28;20463;-84
2022/10/27 08:57:13;;;;;;;10.40;6.50;;;14.20;99.90;;;;;;5088961;28;20472;-84
2022/10/27 08:59:40;;;;;;;7.17;5.67;;;14.40;99.90;;;;;;5087246;28;20517;-82
2022/10/27 09:02:23;;;;;;;5.90;5.33;;;14.50;99.90;;;;;;5090895;28;20485;-81
2022/10/27 09:05:05;;;;;;;6.60;4.80;;;14.40;99.90;;;;;;5093380;28;20508;-82
2022/10/27 09:07:36;;;;;;;7.13;4.83;;;14.50;99.90;;;;;;5101518;28;20474;-81
2022/10/27 09:10:11;;;;;;;4.00;3.70;;;14.60;99.90;;;;;;5089622;28;21482;-81
2022/10/27 09:12:59;;;;;;;5.60;4.90;;;14.60;99.90;;;;;;5092027;28;20570;-81
2022/10/27 09:15:38;;;;;;;4.97;4.47;;;14.50;99.90;;;;;;5092290;28;21159;-81
2022/10/27 09:18:09;;;;;;;3.97;3.70;;;14.50;99.90;;;;;;5096633;28;20451;-81
2022/10/27 09:20:43;;;;;;;4.30;3.17;;;14.60;99.90;;;;;;5090804;28;20484;-81
2022/10/27 09:23:14;;;;;;;4.90;4.27;;;14.70;99.90;;;;;;5092259;28;20469;-82
2022/10/27 09:25:42;;;;;;;6.20;4.30;;;14.70;99.90;;;;;;5093199;28;20491;-81
2022/10/27 09:28:17;;;;;;;5.10;4.30;;;14.80;99.90;;;;;;5093132;28;20487;-81
2022/10/27 09:30:48;;;;;;;5.73;3.43;;;14.90;99.90;;;;;;5089474;28;20520;-81
2022/10/27 09:33:19;;;;;;;3.90;3.60;;;15.00;99.90;;;;;;5092763;28;20465;-82
2022/10/27 09:35:50;;;;;;;4.20;3.60;;;15.10;99.90;;;;;;5090939;28;20472;-81
2022/10/27 09:38:22;;;;;;;4.60;3.50;;;15.10;99.90;;;;;;5086206;28;20928;-81
2022/10/27 09:40:50;;;;;;;12.37;4.07;;;15.30;99.90;;;;;;5087035;28;20500;-81
2022/10/27 09:43:19;;;;;;;5.00;3.13;;;15.30;99.90;;;;;;5092795;28;20464;-82
2022/10/27 09:45:49;;;;;;;4.20;2.57;;;15.20;99.90;;;;;;5089839;28;20892;-82
2022/10/27 09:48:21;;;;;;;2.33;2.23;;;15.40;99.90;;;;;;5087456;28;20449;-81
2022/10/27 09:50:53;;;;;;;2.90;2.20;;;15.50;99.90;;;;;;5099665;28;20804;-81
2022/10/27 09:53:41;;;;;;;5.50;2.43;;;15.40;99.90;;;;;;5101722;28;20505;-81
2022/10/27 09:56:11;;;;;;;4.20;2.17;;;15.60;99.90;;;;;;5089210;28;21288;-81
2022/10/27 09:58:55;;;;;;;4.73;2.60;;;15.90;99.90;;;;;;5087316;28;20987;-81
2022/10/27 10:01:23;;;;;;;1.90;1.80;;;16.00;99.90;;;;;;5091702;28;20511;-82
2022/10/27 10:04:04;;;;;;;2.93;2.10;;;16.00;99.90;;;;;;5085940;28;20450;-82
2022/10/27 10:06:35;;;;;;;7.50;2.10;;;16.10;99.90;;;;;;5087538;28;20948;-81
2022/10/27 10:09:20;;;;;;;2.20;1.73;;;16.10;99.90;;;;;;5094123;28;20528;-81
2022/10/27 10:11:47;;;;;;;3.83;2.87;;;16.10;99.90;;;;;;5089938;28;20515;-81
2022/10/27 10:14:22;;;;;;;3.70;2.30;;;16.10;99.90;;;;;;5093942;28;20519;-81
2022/10/27 10:16:51;;;;;;;6.27;2.80;;;16.40;99.90;;;;;;5099727;28;20468;-81
2022/10/27 10:19:21;;;;;;;6.83;2.20;;;16.50;99.90;;;;;;5091097;28;20487;-81
2022/10/27 10:21:52;;;;;;;3.73;2.33;;;16.40;99.90;;;;;;5097915;28;20513;-81
2022/10/27 10:24:22;;;;;;;4.70;2.20;;;16.40;99.90;;;;;;5100240;28;20521;-80
2022/10/27 10:26:53;;;;;;;4.57;3.03;;;16.40;99.90;;;;;;5099998;28;20514;-81
2022/10/27 10:29:28;;;;;;;2.20;2.00;;;16.50;99.90;;;;;;5091892;28;20447;-81
2022/10/27 10:32:10;;;;;;;4.83;1.70;;;16.60;99.90;;;;;;5092854;28;20463;-81
2022/10/27 10:34:38;;;;;;;3.10;2.60;;;17.00;99.90;;;;;;5088632;28;20551;-81
2022/10/27 10:37:30;;;;;;;12.53;3.87;;;17.20;99.90;;;;;;5091626;28;20474;-81
2022/10/27 10:40:18;;;;;;;2.73;2.53;;;17.00;99.90;;;;;;5086403;28;21327;-81
2022/10/27 10:42:47;;;;;;;4.23;2.73;;;17.10;99.90;;;;;;5094655;28;20583;-80
2022/10/27 10:45:19;;;;;;;4.10;1.83;;;17.30;99.90;;;;;;5086609;28;20578;-81
2022/10/27 10:47:47;;;;;;;4.23;2.93;;;17.50;99.90;;;;;;5092363;28;20461;-81
2022/10/27 10:50:16;;;;;;;2.77;2.43;;;17.50;99.90;;;;;;5093488;28;20481;-81
2022/10/27 10:52:49;;;;;;;4.43;2.87;;;17.40;99.90;;;;;;5098522;28;20474;-81
2022/10/27 10:55:23;;;;;;;6.57;2.97;;;17.30;99.90;;;;;;5083481;28;20462;-80
2022/10/27 10:57:52;;;;;;;3.27;2.97;;;17.20;99.90;;;;;;5089721;28;20888;-81
2022/10/27 11:00:21;;;;;;;2.97;2.70;;;17.50;99.90;;;;;;5093866;28;20550;-80
2022/10/27 11:02:55;;;;;;;2.80;2.60;;;17.50;99.90;;;;;;5089206;28;20535;-81
2022/10/27 11:05:28;;;;;;;7.77;2.63;;;17.70;99.90;;;;;;5097632;28;20459;-81
2022/10/27 11:07:56;;;;;;;6.20;3.40;;;17.80;99.90;;;;;;5095495;28;20547;-80
2022/10/27 11:10:27;;;;;;;4.47;1.80;;;17.80;99.90;;;;;;5089650;28;20875;-80
2022/10/27 11:12:59;;;;;;;7.47;2.63;;;18.00;99.90;;;;;;5098890;28;20475;-81
2022/10/27 11:15:30;;;;;;;3.30;2.80;;;18.10;99.90;;;;;;5099177;28;20478;-81
2022/10/27 11:18:02;;;;;;;2.47;2.27;;;18.20;99.90;;;;;;5094922;28;20469;-81
2022/10/27 11:20:33;;;;;;;3.40;3.10;;;18.30;99.90;;;;;;5094720;28;20524;-81
2022/10/27 11:23:05;;;;;;;2.40;2.20;;;18.30;99.90;;;;;;5087983;28;20583;-80
2022/10/27 11:25:34;;;;;;;4.07;2.70;;;18.40;99.90;;;;;;5095563;28;20516;-81
2022/10/27 11:28:18;;;;;;;3.17;2.97;;;18.30;99.90;;;;;;5087329;28;21179;-81
2022/10/27 11:30:52;;;;;;;2.90;2.70;;;18.40;99.90;;;;;;5089759;28;20848;-80
2022/10/27 11:33:24;;;;;;;4.73;3.10;;;18.40;99.90;;;;;;5084647;28;20953;-80
2022/10/27 11:35:59;;;;;;;3.53;3.30;;;18.40;99.90;;;;;;5085003;28;20546;-80
2022/10/27 11:38:33;;;;;;;3.67;2.60;;;18.40;99.90;;;;;;5088746;28;20450;-80
2022/10/27 11:41:05;;;;;;;4.30;2.70;;;18.50;99.90;;;;;;5096920;28;21081;-80
2022/10/27 11:43:36;;;;;;;2.50;2.40;;;18.50;99.90;;;;;;5096775;28;20456;-80
2022/10/27 11:46:10;;;;;;;6.57;2.90;;;18.70;99.90;;;;;;5088976;28;20516;-80
2022/10/27 11:48:42;;;;;;;4.10;3.77;;;18.70;99.90;;;;;;5087210;28;20469;-81
2022/10/27 11:51:16;;;;;;;4.50;3.13;;;18.80;99.90;;;;;;5096771;28;20471;-81
2022/10/27 11:53:45;;;;;;;4.40;3.30;;;19.00;99.90;;;;;;5100020;27;20443;-80
2022/10/27 11:56:32;;;;;;;6.47;3.87;;;19.10;99.90;;;;;;5084616;28;20458;-81
2022/10/27 11:59:14;;;;;;;3.50;3.20;;;19.00;99.90;;;;;;5084441;28;21226;-81
2022/10/27 12:01:55;;;;;;;5.57;3.60;;;19.10;99.90;;;;;;5088642;28;20478;-80
2022/10/27 12:04:36;;;;;;;4.50;3.77;;;19.00;99.90;;;;;;5091113;28;20623;-80
2022/10/27 12:07:13;;;;;;;9.33;4.97;;;19.10;99.90;;;;;;5089185;28;20539;-81
2022/10/27 12:10:04;;;;;;;4.83;4.20;;;19.10;99.90;;;;;;5093943;28;20521;-81
2022/10/27 12:12:36;;;;;;;3.80;3.50;;;19.20;99.90;;;;;;5101661;28;20486;-81
2022/10/27 12:15:10;;;;;;;5.53;3.83;;;19.10;99.90;;;;;;5084697;28;20526;-81
2022/10/27 12:17:45;;;;;;;4.13;3.17;;;19.00;99.90;;;;;;5086309;28;20995;-81
2022/10/27 12:20:18;;;;;;;6.20;4.77;;;19.00;99.90;;;;;;5083041;28;20467;-80
2022/10/27 12:22:53;;;;;;;4.60;4.27;;;19.00;99.90;;;;;;5087949;28;20486;-81
2022/10/27 12:25:28;;;;;;;4.73;3.70;;;19.00;99.90;;;;;;5093191;28;20880;-81
2022/10/27 12:27:57;;;;;;;5.23;4.13;;;19.10;99.90;;;;;;5085772;28;20515;-81
2022/10/27 12:30:25;;;;;;;3.67;3.30;;;19.10;99.90;;;;;;5088076;28;20535;-80
2022/10/27 12:32:59;;;;;;;4.40;3.50;;;19.20;99.90;;;;;;5088416;28;20452;-81
2022/10/27 12:35:31;;;;;;;4.03;3.40;;;19.20;99.90;;;;;;5089567;28;20996;-81
2022/10/27 12:38:07;;;;;;;3.93;3.10;;;19.20;99.90;;;;;;5086373;28;21025;-81
2022/10/27 12:40:42;;;;;;;5.63;3.50;;;19.30;99.90;;;;;;5103910;28;20970;-81
2022/10/27 12:43:17;;;;;;;4.40;3.60;;;19.30;99.90;;;;;;5091613;28;20483;-81
2022/10/27 12:46:20;;;;;;;3.53;2.87;;;19.30;99.90;;;;;;5086597;28;20955;-81
2022/10/27 12:48:57;;;;;;;5.73;2.33;;;19.30;99.90;;;;;;5065699;28;20450;-82
2022/10/27 12:51:32;;;;;;;3.33;3.03;;;19.50;99.90;;;;;;5089884;28;20452;-82
2022/10/27 12:54:12;;;;;;;3.97;2.90;;;19.60;99.90;;;;;;5100974;28;20437;-82
2022/10/27 12:56:47;;;;;;;5.60;2.80;;;19.60;99.90;;;;;;5088040;28;21101;-82
2022/10/27 12:59:23;;;;;;;2.90;2.20;;;19.60;99.90;;;;;;5093305;28;20466;-82